sensor_id;sensor_type;location;lat;lon;timestamp;temperature;humidity
6110;DHT22;3085;49.444;11.054;2023-04-15T00:01:41;7.50;99.90
6110;DHT22;3085;49.444;11.054;2023-04-15T00:04:07;7.40;99.90
6110;DHT22;3085;49.444;11.054;2023-04-15T00:06:36;7.40;99.90
6110;DHT22;3085;49.444;11.054;2023-04-15T00:09:05;7.40;99.90
6110;DHT22;3085;49.444;11.054;2023-04-15T00:11:32;7.40;99.90
6110;DHT22;3085;49.444;11.054;2023-04-15T00:13:59;7.40;99.90
6110;DHT22;3085;49.444;11.054;2023-04-15T00:16:26;7.40;99.90
6110;DHT22;3085;49.444;11.054;2023-04-15T00:18:52;7.40;99.90
6110;DHT22;3085;49.444;11.054;2023-04-15T00:21:19;7.40;99.90
6110;DHT22;3085;49.444;11.054;2023-04-15T00:23:46;7.40;99.90
6110;DHT22;3085;49.444;11.054;2023-04-15T00:26:18;7.40;99.90
6110;DHT22;3085;49.444;11.054;2023-04-15T00:28:45;7.40;99.90
6110;DHT22;3085;49.444;11.054;2023-04-15T00:31:12;7.40;99.90
6110;DHT22;3085;49.444;11.054;2023-04-15T00:33:38;7.40;99.90
6110;DHT22;3085;49.444;11.054;2023-04-15T00:36:06;7.40;99.90
6110;DHT22;3085;49.444;11.054;2023-04-15T00:38:35;7.30;99.90
6110;DHT22;3085;49.444;11.054;2023-04-15T00:41:02;7.30;99.90
6110;DHT22;3085;49.444;11.054;2023-04-15T00:43:30;7.30;99.90
6110;DHT22;3085;49.444;11.054;2023-04-15T00:45:58;7.30;99.90
6110;DHT22;3085;49.444;11.054;2023-04-15T00:48:25;7.30;99.90
6110;DHT22;3085;49.444;11.054;2023-04-15T00:50:52;7.30;99.90
6110;DHT22;3085;49.444;11.054;2023-04-15T00:53:19;7.30;99.90
6110;DHT22;3085;49.444;11.054;2023-04-15T00:55:46;7.30;99.90
6110;DHT22;3085;49.444;11.054;2023-04-15T00:58:13;7.30;99.90
6110;DHT22;3085;49.444;11.054;2023-04-15T01:00:42;7.30;99.90
6110;DHT22;3085;49.444;11.054;2023-04-15T01:03:09;7.20;99.90
6110;DHT22;3085;49.444;11.054;2023-04-15T01:05:36;7.20;99.90
6110;DHT22;3085;49.444;11.054;2023-04-15T01:08:04;7.20;99.90
6110;DHT22;3085;49.444;11.054;2023-04-15T01:10:31;7.20;99.90
6110;DHT22;3085;49.444;11.054;2023-04-15T01:12:57;7.20;99.90
6110;DHT22;3085;49.444;11.054;2023-04-15T01:15:24;7.20;99.90
6110;DHT22;3085;49.444;11.054;2023-04-15T01:17:53;7.20;99.90
6110;DHT22;3085;49.444;11.054;2023-04-15T01:20:21;7.10;99.90
6110;DHT22;3085;49.444;11.054;2023-04-15T01:22:48;7.20;99.90
6110;DHT22;3085;49.444;11.054;2023-04-15T01:25:18;7.20;99.90
6110;DHT22;3085;49.444;11.054;2023-04-15T01:27:47;7.20;99.90
6110;DHT22;3085;49.444;11.054;2023-04-15T01:30:14;7.30;99.90
6110;DHT22;3085;49.444;11.054;2023-04-15T01:32:41;7.30;99.90
6110;DHT22;3085;49.444;11.054;2023-04-15T01:35:08;7.30;99.90
6110;DHT22;3085;49.444;11.054;2023-04-15T01:37:35;7.40;99.90
6110;DHT22;3085;49.444;11.054;2023-04-15T01:40:03;7.60;99.90
6110;DHT22;3085;49.444;11.054;2023-04-15T01:42:30;7.40;99.90
6110;DHT22;3085;49.444;11.054;2023-04-15T01:44:58;7.40;99.90
6110;DHT22;3085;49.444;11.054;2023-04-15T01:47:25;7.40;99.90
6110;DHT22;3085;49.444;11.054;2023-04-15T01:49:52;7.40;99.90
6110;DHT22;3085;49.444;11.054;2023-04-15T01:52:19;7.40;99.90
6110;DHT22;3085;49.444;11.054;2023-04-15T01:54:45;7.30;99.90
6110;DHT22;3085;49.444;11.054;2023-04-15T01:57:12;7.30;99.90
6110;DHT22;3085;49.444;11.054;2023-04-15T01:59:39;7.30;99.90
6110;DHT22;3085;49.444;11.054;2023-04-15T02:02:08;7.30;99.90
6110;DHT22;3085;49.444;11.054;2023-04-15T02:04:35;7.20;99.90
6110;DHT22;3085;49.444;11.054;2023-04-15T02:07:01;7.30;99.90
6110;DHT22;3085;49.444;11.054;2023-04-15T02:09:28;7.30;99.90
6110;DHT22;3085;49.444;11.054;2023-04-15T02:11:56;7.20;99.90
6110;DHT22;3085;49.444;11.054;2023-04-15T02:14:23;7.20;99.90
6110;DHT22;3085;49.444;11.054;2023-04-15T02:16:49;7.20;99.90
6110;DHT22;3085;49.444;11.054;2023-04-15T02:19:17;7.10;99.90
6110;DHT22;3085;49.444;11.054;2023-04-15T02:21:44;7.10;99.90
6110;DHT22;3085;49.444;11.054;2023-04-15T02:24:11;7.50;99.90
6110;DHT22;3085;49.444;11.054;2023-04-15T02:26:38;8.00;99.90
6110;DHT22;3085;49.444;11.054;2023-04-15T02:29:05;7.10;99.90
6110;DHT22;3085;49.444;11.054;2023-04-15T02:31:31;7.10;99.90
6110;DHT22;3085;49.444;11.054;2023-04-15T02:34:01;7.10;99.90
6110;DHT22;3085;49.444;11.054;2023-04-15T02:36:30;7.00;99.90
6110;DHT22;3085;49.444;11.054;2023-04-15T02:38:57;7.10;99.90
6110;DHT22;3085;49.444;11.054;2023-04-15T02:41:24;7.10;99.90
6110;DHT22;3085;49.444;11.054;2023-04-15T02:43:53;7.10;99.90
6110;DHT22;3085;49.444;11.054;2023-04-15T02:46:19;7.10;99.90
6110;DHT22;3085;49.444;11.054;2023-04-15T02:48:47;7.10;99.90
6110;DHT22;3085;49.444;11.054;2023-04-15T02:51:15;7.20;99.90
6110;DHT22;3085;49.444;11.054;2023-04-15T02:53:44;7.20;99.90
6110;DHT22;3085;49.444;11.054;2023-04-15T02:56:11;7.20;99.90
6110;DHT22;3085;49.444;11.054;2023-04-15T02:58:40;7.20;99.90
6110;DHT22;3085;49.444;11.054;2023-04-15T03:01:07;7.10;99.90
6110;DHT22;3085;49.444;11.054;2023-04-15T03:03:34;7.10;99.90
6110;DHT22;3085;49.444;11.054;2023-04-15T03:06:01;7.10;99.90
6110;DHT22;3085;49.444;11.054;2023-04-15T03:08:27;7.10;99.90
6110;DHT22;3085;49.444;11.054;2023-04-15T03:10:57;7.00;99.90
6110;DHT22;3085;49.444;11.054;2023-04-15T03:13:25;7.10;99.90
6110;DHT22;3085;49.444;11.054;2023-04-15T03:15:52;7.10;99.90
6110;DHT22;3085;49.444;11.054;2023-04-15T03:18:18;7.00;99.90
6110;DHT22;3085;49.444;11.054;2023-04-15T03:20:46;7.30;99.90
6110;DHT22;3085;49.444;11.054;2023-04-15T03:23:12;7.00;99.90
6110;DHT22;3085;49.444;11.054;2023-04-15T03:25:39;7.00;99.90
6110;DHT22;3085;49.444;11.054;2023-04-15T03:28:07;7.00;99.90
6110;DHT22;3085;49.444;11.054;2023-04-15T03:30:34;7.00;99.90
6110;DHT22;3085;49.444;11.054;2023-04-15T03:33:01;7.00;99.90
6110;DHT22;3085;49.444;11.054;2023-04-15T03:35:28;7.00;99.90
6110;DHT22;3085;49.444;11.054;2023-04-15T03:37:55;7.10;99.90
6110;DHT22;3085;49.444;11.054;2023-04-15T03:40:22;7.10;99.90
6110;DHT22;3085;49.444;11.054;2023-04-15T03:42:48;7.10;99.90
6110;DHT22;3085;49.444;11.054;2023-04-15T03:45:16;7.10;99.90
6110;DHT22;3085;49.444;11.054;2023-04-15T03:47:43;7.10;99.90
6110;DHT22;3085;49.444;11.054;2023-04-15T03:50:11;7.10;99.90
6110;DHT22;3085;49.444;11.054;2023-04-15T03:52:37;7.10;99.90
6110;DHT22;3085;49.444;11.054;2023-04-15T03:55:07;7.10;99.90
6110;DHT22;3085;49.444;11.054;2023-04-15T03:57:34;7.20;99.90
6110;DHT22;3085;49.444;11.054;2023-04-15T04:00:04;7.20;99.90
6110;DHT22;3085;49.444;11.054;2023-04-15T04:02:32;7.20;99.90
6110;DHT22;3085;49.444;11.054;2023-04-15T04:04:59;7.10;99.90
6110;DHT22;3085;49.444;11.054;2023-04-15T04:07:26;7.10;99.90
6110;DHT22;3085;49.444;11.054;2023-04-15T04:09:53;7.20;99.90
6110;DHT22;3085;49.444;11.054;2023-04-15T04:12:19;7.10;99.90
6110;DHT22;3085;49.444;11.054;2023-04-15T04:14:47;7.10;99.90
6110;DHT22;3085;49.444;11.054;2023-04-15T04:17:14;7.20;99.90
6110;DHT22;3085;49.444;11.054;2023-04-15T04:19:42;7.30;99.90
6110;DHT22;3085;49.444;11.054;2023-04-15T04:22:09;7.20;99.90
6110;DHT22;3085;49.444;11.054;2023-04-15T04:24:36;7.20;99.90
6110;DHT22;3085;49.444;11.054;2023-04-15T04:27:04;7.30;99.90
6110;DHT22;3085;49.444;11.054;2023-04-15T04:29:31;7.10;99.90
6110;DHT22;3085;49.444;11.054;2023-04-15T04:31:58;7.00;99.90
6110;DHT22;3085;49.444;11.054;2023-04-15T04:34:24;7.10;99.90
6110;DHT22;3085;49.444;11.054;2023-04-15T04:36:52;7.10;99.90
6110;DHT22;3085;49.444;11.054;2023-04-15T04:39:19;7.10;99.90
6110;DHT22;3085;49.444;11.054;2023-04-15T04:41:46;7.10;99.90
6110;DHT22;3085;49.444;11.054;2023-04-15T04:44:13;7.00;99.90
6110;DHT22;3085;49.444;11.054;2023-04-15T04:46:40;7.10;99.90
6110;DHT22;3085;49.444;11.054;2023-04-15T04:49:07;7.10;99.90
6110;DHT22;3085;49.444;11.054;2023-04-15T04:51:34;7.00;99.90
6110;DHT22;3085;49.444;11.054;2023-04-15T04:54:03;7.00;99.90
6110;DHT22;3085;49.444;11.054;2023-04-15T04:56:29;7.00;99.90
6110;DHT22;3085;49.444;11.054;2023-04-15T04:58:56;7.00;99.90
6110;DHT22;3085;49.444;11.054;2023-04-15T05:01:23;6.90;99.90
6110;DHT22;3085;49.444;11.054;2023-04-15T05:03:51;7.30;99.90
6110;DHT22;3085;49.444;11.054;2023-04-15T05:06:17;7.00;99.90
6110;DHT22;3085;49.444;11.054;2023-04-15T05:08:44;7.00;99.90
6110;DHT22;3085;49.444;11.054;2023-04-15T05:11:13;7.00;99.90
6110;DHT22;3085;49.444;11.054;2023-04-15T05:13:40;7.00;99.90
6110;DHT22;3085;49.444;11.054;2023-04-15T05:16:07;7.00;99.90
6110;DHT22;3085;49.444;11.054;2023-04-15T05:18:34;7.10;99.90
6110;DHT22;3085;49.444;11.054;2023-04-15T05:21:01;7.10;99.90
6110;DHT22;3085;49.444;11.054;2023-04-15T05:23:28;7.10;99.90
6110;DHT22;3085;49.444;11.054;2023-04-15T05:25:55;7.10;99.90
6110;DHT22;3085;49.444;11.054;2023-04-15T05:28:23;7.10;99.90
6110;DHT22;3085;49.444;11.054;2023-04-15T05:30:50;7.10;99.90
6110;DHT22;3085;49.444;11.054;2023-04-15T05:33:17;7.10;99.90
6110;DHT22;3085;49.444;11.054;2023-04-15T05:35:43;7.10;99.90
6110;DHT22;3085;49.444;11.054;2023-04-15T05:38:10;7.10;99.90
6110;DHT22;3085;49.444;11.054;2023-04-15T05:40:37;7.20;99.90
6110;DHT22;3085;49.444;11.054;2023-04-15T05:43:04;7.20;99.90
6110;DHT22;3085;49.444;11.054;2023-04-15T05:45:32;7.20;99.90
6110;DHT22;3085;49.444;11.054;2023-04-15T05:47:59;7.10;99.90
6110;DHT22;3085;49.444;11.054;2023-04-15T05:50:26;7.20;99.90
6110;DHT22;3085;49.444;11.054;2023-04-15T05:52:53;7.20;99.90
6110;DHT22;3085;49.444;11.054;2023-04-15T05:55:20;7.30;99.90
6110;DHT22;3085;49.444;11.054;2023-04-15T05:57:47;7.30;99.90
6110;DHT22;3085;49.444;11.054;2023-04-15T06:00:14;7.30;99.90
6110;DHT22;3085;49.444;11.054;2023-04-15T06:02:42;7.30;99.90
6110;DHT22;3085;49.444;11.054;2023-04-15T06:05:09;7.30;99.90
6110;DHT22;3085;49.444;11.054;2023-04-15T06:07:37;7.30;99.90
6110;DHT22;3085;49.444;11.054;2023-04-15T06:10:05;7.30;99.90
6110;DHT22;3085;49.444;11.054;2023-04-15T06:12:32;7.30;99.90
6110;DHT22;3085;49.444;11.054;2023-04-15T06:14:59;7.40;99.90
6110;DHT22;3085;49.444;11.054;2023-04-15T06:17:26;7.40;99.90
6110;DHT22;3085;49.444;11.054;2023-04-15T06:19:54;7.40;99.90
6110;DHT22;3085;49.444;11.054;2023-04-15T06:22:21;7.30;99.90
6110;DHT22;3085;49.444;11.054;2023-04-15T06:24:48;7.30;99.90
6110;DHT22;3085;49.444;11.054;2023-04-15T06:27:16;7.30;99.90
6110;DHT22;3085;49.444;11.054;2023-04-15T06:29:42;7.30;99.90
6110;DHT22;3085;49.444;11.054;2023-04-15T06:32:10;7.40;99.90
6110;DHT22;3085;49.444;11.054;2023-04-15T06:34:37;7.40;99.90
6110;DHT22;3085;49.444;11.054;2023-04-15T06:37:05;7.40;99.90
6110;DHT22;3085;49.444;11.054;2023-04-15T06:39:34;7.50;99.90
6110;DHT22;3085;49.444;11.054;2023-04-15T06:42:01;7.50;99.90
6110;DHT22;3085;49.444;11.054;2023-04-15T06:44:29;7.50;99.90
6110;DHT22;3085;49.444;11.054;2023-04-15T06:46:55;7.40;99.90
6110;DHT22;3085;49.444;11.054;2023-04-15T06:49:23;7.50;99.90
6110;DHT22;3085;49.444;11.054;2023-04-15T06:51:50;7.50;99.90
6110;DHT22;3085;49.444;11.054;2023-04-15T06:54:18;7.60;99.90
6110;DHT22;3085;49.444;11.054;2023-04-15T06:56:45;7.60;99.90
6110;DHT22;3085;49.444;11.054;2023-04-15T06:59:12;7.60;99.90
6110;DHT22;3085;49.444;11.054;2023-04-15T07:01:39;7.80;99.90
6110;DHT22;3085;49.444;11.054;2023-04-15T07:04:06;7.60;99.90
6110;DHT22;3085;49.444;11.054;2023-04-15T07:06:33;7.60;99.90
6110;DHT22;3085;49.444;11.054;2023-04-15T07:09:00;7.60;99.90
6110;DHT22;3085;49.444;11.054;2023-04-15T07:11:28;7.70;99.90
6110;DHT22;3085;49.444;11.054;2023-04-15T07:13:56;7.60;99.90
6110;DHT22;3085;49.444;11.054;2023-04-15T07:16:23;7.70;99.90
6110;DHT22;3085;49.444;11.054;2023-04-15T07:18:50;7.70;99.90
6110;DHT22;3085;49.444;11.054;2023-04-15T07:21:17;7.80;99.90
6110;DHT22;3085;49.444;11.054;2023-04-15T07:23:44;7.80;99.90
6110;DHT22;3085;49.444;11.054;2023-04-15T07:26:10;7.90;99.90
6110;DHT22;3085;49.444;11.054;2023-04-15T07:28:39;7.90;99.90
6110;DHT22;3085;49.444;11.054;2023-04-15T07:31:06;8.00;99.90
6110;DHT22;3085;49.444;11.054;2023-04-15T07:33:32;8.10;99.90
6110;DHT22;3085;49.444;11.054;2023-04-15T07:35:59;8.10;99.90
6110;DHT22;3085;49.444;11.054;2023-04-15T07:38:27;8.10;99.90
6110;DHT22;3085;49.444;11.054;2023-04-15T07:40:54;8.80;99.90
6110;DHT22;3085;49.444;11.054;2023-04-15T07:43:21;8.10;99.90
6110;DHT22;3085;49.444;11.054;2023-04-15T07:45:49;8.10;99.90
6110;DHT22;3085;49.444;11.054;2023-04-15T07:48:16;8.10;99.90
6110;DHT22;3085;49.444;11.054;2023-04-15T07:50:43;8.30;99.90
6110;DHT22;3085;49.444;11.054;2023-04-15T07:53:10;8.10;99.90
6110;DHT22;3085;49.444;11.054;2023-04-15T07:55:36;8.20;99.90
6110;DHT22;3085;49.444;11.054;2023-04-15T07:58:03;8.20;99.90
6110;DHT22;3085;49.444;11.054;2023-04-15T08:00:45;8.20;99.90
6110;DHT22;3085;49.444;11.054;2023-04-15T08:03:13;8.10;99.90
6110;DHT22;3085;49.444;11.054;2023-04-15T08:05:40;8.10;99.90
6110;DHT22;3085;49.444;11.054;2023-04-15T08:08:07;8.00;99.90
6110;DHT22;3085;49.444;11.054;2023-04-15T08:10:34;8.20;99.90
6110;DHT22;3085;49.444;11.054;2023-04-15T08:13:01;8.00;99.90
6110;DHT22;3085;49.444;11.054;2023-04-15T08:15:28;7.90;99.90
6110;DHT22;3085;49.444;11.054;2023-04-15T08:17:57;8.00;99.90
6110;DHT22;3085;49.444;11.054;2023-04-15T08:20:26;7.90;99.90
6110;DHT22;3085;49.444;11.054;2023-04-15T08:22:53;8.00;99.90
6110;DHT22;3085;49.444;11.054;2023-04-15T08:25:20;8.00;99.90
6110;DHT22;3085;49.444;11.054;2023-04-15T08:27:46;7.90;99.90
6110;DHT22;3085;49.444;11.054;2023-04-15T08:30:13;8.00;99.90
6110;DHT22;3085;49.444;11.054;2023-04-15T08:32:41;8.00;99.90
6110;DHT22;3085;49.444;11.054;2023-04-15T08:35:09;7.90;99.90
6110;DHT22;3085;49.444;11.054;2023-04-15T08:37:37;7.90;99.90
6110;DHT22;3085;49.444;11.054;2023-04-15T08:40:05;7.80;99.90
6110;DHT22;3085;49.444;11.054;2023-04-15T08:42:36;7.70;99.90
6110;DHT22;3085;49.444;11.054;2023-04-15T08:45:08;7.70;99.90
6110;DHT22;3085;49.444;11.054;2023-04-15T08:47:37;7.60;99.90
6110;DHT22;3085;49.444;11.054;2023-04-15T08:50:05;7.60;99.90
6110;DHT22;3085;49.444;11.054;2023-04-15T08:52:34;7.60;99.90
6110;DHT22;3085;49.444;11.054;2023-04-15T08:55:03;7.50;99.90
6110;DHT22;3085;49.444;11.054;2023-04-15T08:57:32;7.50;99.90
6110;DHT22;3085;49.444;11.054;2023-04-15T09:00:01;7.50;99.90
6110;DHT22;3085;49.444;11.054;2023-04-15T09:02:28;7.50;99.90
6110;DHT22;3085;49.444;11.054;2023-04-15T09:04:55;7.40;99.90
6110;DHT22;3085;49.444;11.054;2023-04-15T09:07:22;7.40;99.90
6110;DHT22;3085;49.444;11.054;2023-04-15T09:09:49;7.40;99.90
6110;DHT22;3085;49.444;11.054;2023-04-15T09:12:18;7.40;99.90
6110;DHT22;3085;49.444;11.054;2023-04-15T09:14:45;7.40;99.90
6110;DHT22;3085;49.444;11.054;2023-04-15T09:17:12;7.40;99.90
6110;DHT22;3085;49.444;11.054;2023-04-15T09:19:44;7.50;99.90
6110;DHT22;3085;49.444;11.054;2023-04-15T09:22:11;7.50;99.90
6110;DHT22;3085;49.444;11.054;2023-04-15T09:24:39;7.50;99.90
6110;DHT22;3085;49.444;11.054;2023-04-15T09:27:08;8.10;99.90
6110;DHT22;3085;49.444;11.054;2023-04-15T09:29:36;7.60;99.90
6110;DHT22;3085;49.444;11.054;2023-04-15T09:32:10;7.50;99.90
6110;DHT22;3085;49.444;11.054;2023-04-15T09:34:37;7.70;99.90
6110;DHT22;3085;49.444;11.054;2023-04-15T09:37:04;7.60;99.90
6110;DHT22;3085;49.444;11.054;2023-04-15T09:39:46;7.60;99.90
6110;DHT22;3085;49.444;11.054;2023-04-15T09:42:14;7.60;99.90
6110;DHT22;3085;49.444;11.054;2023-04-15T09:44:43;7.60;99.90
6110;DHT22;3085;49.444;11.054;2023-04-15T09:47:26;7.50;99.90
6110;DHT22;3085;49.444;11.054;2023-04-15T09:49:57;7.60;99.90
6110;DHT22;3085;49.444;11.054;2023-04-15T09:52:24;7.50;99.90
6110;DHT22;3085;49.444;11.054;2023-04-15T09:54:53;7.40;99.90
6110;DHT22;3085;49.444;11.054;2023-04-15T09:57:21;7.40;99.90
6110;DHT22;3085;49.444;11.054;2023-04-15T09:59:49;7.50;99.90
6110;DHT22;3085;49.444;11.054;2023-04-15T10:02:17;7.50;99.90
6110;DHT22;3085;49.444;11.054;2023-04-15T10:04:47;7.60;99.90
6110;DHT22;3085;49.444;11.054;2023-04-15T10:07:15;7.60;99.90
6110;DHT22;3085;49.444;11.054;2023-04-15T10:09:45;7.60;99.90
6110;DHT22;3085;49.444;11.054;2023-04-15T10:12:12;7.50;99.90
6110;DHT22;3085;49.444;11.054;2023-04-15T10:14:43;7.50;99.90
6110;DHT22;3085;49.444;11.054;2023-04-15T10:17:12;7.50;99.90
6110;DHT22;3085;49.444;11.054;2023-04-15T10:19:40;7.40;99.90
6110;DHT22;3085;49.444;11.054;2023-04-15T10:22:08;7.40;99.90
6110;DHT22;3085;49.444;11.054;2023-04-15T10:24:35;7.30;99.90
6110;DHT22;3085;49.444;11.054;2023-04-15T10:27:02;7.30;99.90
6110;DHT22;3085;49.444;11.054;2023-04-15T10:29:30;7.30;99.90
6110;DHT22;3085;49.444;11.054;2023-04-15T10:31:58;7.40;99.90
6110;DHT22;3085;49.444;11.054;2023-04-15T10:34:28;7.10;99.90
6110;DHT22;3085;49.444;11.054;2023-04-15T10:36:55;7.10;99.90
6110;DHT22;3085;49.444;11.054;2023-04-15T10:39:38;7.20;99.90
6110;DHT22;3085;49.444;11.054;2023-04-15T10:42:06;7.20;99.90
6110;DHT22;3085;49.444;11.054;2023-04-15T10:44:34;7.10;99.90
6110;DHT22;3085;49.444;11.054;2023-04-15T10:47:09;7.10;99.90
6110;DHT22;3085;49.444;11.054;2023-04-15T10:49:44;7.00;99.90
6110;DHT22;3085;49.444;11.054;2023-04-15T10:52:13;7.00;99.90
6110;DHT22;3085;49.444;11.054;2023-04-15T10:54:40;7.20;99.90
6110;DHT22;3085;49.444;11.054;2023-04-15T10:57:08;8.50;99.90
6110;DHT22;3085;49.444;11.054;2023-04-15T11:02:44;7.10;99.90
6110;DHT22;3085;49.444;11.054;2023-04-15T11:05:14;7.00;99.90
6110;DHT22;3085;49.444;11.054;2023-04-15T11:07:50;8.10;99.90
6110;DHT22;3085;49.444;11.054;2023-04-15T11:10:51;7.10;99.90
6110;DHT22;3085;49.444;11.054;2023-04-15T11:13:28;7.10;99.90
6110;DHT22;3085;49.444;11.054;2023-04-15T11:15:57;7.30;99.90
6110;DHT22;3085;49.444;11.054;2023-04-15T11:18:27;7.30;99.90
6110;DHT22;3085;49.444;11.054;2023-04-15T11:20:57;7.40;99.90
6110;DHT22;3085;49.444;11.054;2023-04-15T11:23:30;7.30;99.90
6110;DHT22;3085;49.444;11.054;2023-04-15T11:25:59;7.40;99.90
6110;DHT22;3085;49.444;11.054;2023-04-15T11:28:27;7.50;99.90
6110;DHT22;3085;49.444;11.054;2023-04-15T11:30:54;7.60;99.90
6110;DHT22;3085;49.444;11.054;2023-04-15T11:33:22;7.50;99.90
6110;DHT22;3085;49.444;11.054;2023-04-15T11:35:50;7.50;99.90
6110;DHT22;3085;49.444;11.054;2023-04-15T11:38:19;7.50;99.90
6110;DHT22;3085;49.444;11.054;2023-04-15T11:40:47;7.50;99.90
6110;DHT22;3085;49.444;11.054;2023-04-15T11:43:16;7.60;99.90
6110;DHT22;3085;49.444;11.054;2023-04-15T11:45:50;7.00;99.90
6110;DHT22;3085;49.444;11.054;2023-04-15T11:48:24;7.60;99.90
6110;DHT22;3085;49.444;11.054;2023-04-15T11:51:03;7.40;99.90
6110;DHT22;3085;49.444;11.054;2023-04-15T11:53:44;7.90;99.90
6110;DHT22;3085;49.444;11.054;2023-04-15T11:56:17;7.50;99.90
6110;DHT22;3085;49.444;11.054;2023-04-15T11:58:50;7.50;99.90
6110;DHT22;3085;49.444;11.054;2023-04-15T12:01:30;7.50;99.90
6110;DHT22;3085;49.444;11.054;2023-04-15T12:03:57;7.60;99.90
6110;DHT22;3085;49.444;11.054;2023-04-15T12:06:31;7.60;99.90
6110;DHT22;3085;49.444;11.054;2023-04-15T12:09:10;7.60;99.90
6110;DHT22;3085;49.444;11.054;2023-04-15T12:11:40;7.70;99.90
6110;DHT22;3085;49.444;11.054;2023-04-15T12:14:09;7.70;99.90
6110;DHT22;3085;49.444;11.054;2023-04-15T12:16:49;9.00;99.90
6110;DHT22;3085;49.444;11.054;2023-04-15T12:19:25;7.80;99.90
6110;DHT22;3085;49.444;11.054;2023-04-15T12:21:57;7.80;99.90
6110;DHT22;3085;49.444;11.054;2023-04-15T12:24:26;7.80;99.90
6110;DHT22;3085;49.444;11.054;2023-04-15T12:27:02;7.90;99.90
6110;DHT22;3085;49.444;11.054;2023-04-15T12:29:30;8.10;99.90
6110;DHT22;3085;49.444;11.054;2023-04-15T12:32:04;7.90;99.90
6110;DHT22;3085;49.444;11.054;2023-04-15T12:34:34;7.90;99.90
6110;DHT22;3085;49.444;11.054;2023-04-15T12:37:03;8.80;99.90
6110;DHT22;3085;49.444;11.054;2023-04-15T12:39:34;7.90;99.90
6110;DHT22;3085;49.444;11.054;2023-04-15T12:42:01;7.80;99.90
6110;DHT22;3085;49.444;11.054;2023-04-15T12:44:28;8.60;99.90
6110;DHT22;3085;49.444;11.054;2023-04-15T12:46:56;7.90;99.90
6110;DHT22;3085;49.444;11.054;2023-04-15T12:49:24;7.80;99.90
6110;DHT22;3085;49.444;11.054;2023-04-15T12:51:52;7.80;99.90
6110;DHT22;3085;49.444;11.054;2023-04-15T12:54:20;7.80;99.90
6110;DHT22;3085;49.444;11.054;2023-04-15T12:56:49;7.80;99.90
6110;DHT22;3085;49.444;11.054;2023-04-15T12:59:16;7.90;99.90
6110;DHT22;3085;49.444;11.054;2023-04-15T13:01:44;7.90;99.90
6110;DHT22;3085;49.444;11.054;2023-04-15T13:04:32;6.60;99.90
6110;DHT22;3085;49.444;11.054;2023-04-15T13:07:08;7.90;99.90
6110;DHT22;3085;49.444;11.054;2023-04-15T13:09:42;8.00;99.90
6110;DHT22;3085;49.444;11.054;2023-04-15T13:12:16;8.00;99.90
6110;DHT22;3085;49.444;11.054;2023-04-15T13:14:46;9.00;99.90
6110;DHT22;3085;49.444;11.054;2023-04-15T13:17:13;7.90;99.90
6110;DHT22;3085;49.444;11.054;2023-04-15T13:19:42;8.00;99.90
6110;DHT22;3085;49.444;11.054;2023-04-15T13:22:08;8.10;99.90
6110;DHT22;3085;49.444;11.054;2023-04-15T13:24:36;8.10;99.90
6110;DHT22;3085;49.444;11.054;2023-04-15T13:27:03;8.10;99.90
6110;DHT22;3085;49.444;11.054;2023-04-15T13:29:33;8.20;99.90
6110;DHT22;3085;49.444;11.054;2023-04-15T13:32:03;8.20;99.90
6110;DHT22;3085;49.444;11.054;2023-04-15T13:34:30;8.30;99.90
6110;DHT22;3085;49.444;11.054;2023-04-15T13:36:57;8.30;99.90
6110;DHT22;3085;49.444;11.054;2023-04-15T13:39:24;8.30;99.90
6110;DHT22;3085;49.444;11.054;2023-04-15T13:41:51;8.30;99.90
6110;DHT22;3085;49.444;11.054;2023-04-15T13:44:18;8.20;99.90
6110;DHT22;3085;49.444;11.054;2023-04-15T13:46:46;8.20;99.90
6110;DHT22;3085;49.444;11.054;2023-04-15T13:49:13;8.20;99.90
6110;DHT22;3085;49.444;11.054;2023-04-15T13:51:40;8.20;99.90
6110;DHT22;3085;49.444;11.054;2023-04-15T13:54:07;8.20;99.90
6110;DHT22;3085;49.444;11.054;2023-04-15T13:56:33;8.20;99.90
6110;DHT22;3085;49.444;11.054;2023-04-15T13:59:01;8.20;99.90
6110;DHT22;3085;49.444;11.054;2023-04-15T14:01:28;8.20;99.90
6110;DHT22;3085;49.444;11.054;2023-04-15T14:03:56;8.00;99.90
6110;DHT22;3085;49.444;11.054;2023-04-15T14:06:23;8.10;99.90
6110;DHT22;3085;49.444;11.054;2023-04-15T14:08:50;8.30;99.90
6110;DHT22;3085;49.444;11.054;2023-04-15T14:11:17;8.20;99.90
6110;DHT22;3085;49.444;11.054;2023-04-15T14:13:44;8.20;99.90
6110;DHT22;3085;49.444;11.054;2023-04-15T14:16:11;8.30;99.90
6110;DHT22;3085;49.444;11.054;2023-04-15T14:18:39;8.10;99.90
6110;DHT22;3085;49.444;11.054;2023-04-15T14:21:07;8.20;99.90
6110;DHT22;3085;49.444;11.054;2023-04-15T14:23:34;8.10;99.90
6110;DHT22;3085;49.444;11.054;2023-04-15T14:26:01;8.20;99.90
6110;DHT22;3085;49.444;11.054;2023-04-15T14:28:28;8.10;99.90
6110;DHT22;3085;49.444;11.054;2023-04-15T14:30:56;8.20;99.90
6110;DHT22;3085;49.444;11.054;2023-04-15T14:33:23;8.20;99.90
6110;DHT22;3085;49.444;11.054;2023-04-15T14:35:50;9.40;99.90
6110;DHT22;3085;49.444;11.054;2023-04-15T14:38:18;8.20;99.90
6110;DHT22;3085;49.444;11.054;2023-04-15T14:40:47;8.20;99.90
6110;DHT22;3085;49.444;11.054;2023-04-15T14:43:14;8.00;99.90
6110;DHT22;3085;49.444;11.054;2023-04-15T14:45:41;8.10;99.90
6110;DHT22;3085;49.444;11.054;2023-04-15T14:48:08;8.20;99.90
6110;DHT22;3085;49.444;11.054;2023-04-15T14:50:37;8.20;99.90
6110;DHT22;3085;49.444;11.054;2023-04-15T14:53:03;8.20;99.90
6110;DHT22;3085;49.444;11.054;2023-04-15T14:55:32;8.10;99.90
6110;DHT22;3085;49.444;11.054;2023-04-15T14:57:59;8.10;99.90
6110;DHT22;3085;49.444;11.054;2023-04-15T15:00:26;8.10;99.90
6110;DHT22;3085;49.444;11.054;2023-04-15T15:02:57;8.30;99.90
6110;DHT22;3085;49.444;11.054;2023-04-15T15:05:24;8.10;99.90
6110;DHT22;3085;49.444;11.054;2023-04-15T15:07:51;8.10;99.90
6110;DHT22;3085;49.444;11.054;2023-04-15T15:10:18;8.10;99.90
6110;DHT22;3085;49.444;11.054;2023-04-15T15:12:47;8.10;99.90
6110;DHT22;3085;49.444;11.054;2023-04-15T15:15:14;9.10;99.90
6110;DHT22;3085;49.444;11.054;2023-04-15T15:17:41;8.00;99.90
6110;DHT22;3085;49.444;11.054;2023-04-15T15:20:08;8.10;99.90
6110;DHT22;3085;49.444;11.054;2023-04-15T15:22:35;8.10;99.90
6110;DHT22;3085;49.444;11.054;2023-04-15T15:25:02;8.10;99.90
6110;DHT22;3085;49.444;11.054;2023-04-15T15:27:29;8.00;99.90
6110;DHT22;3085;49.444;11.054;2023-04-15T15:29:58;8.30;99.90
6110;DHT22;3085;49.444;11.054;2023-04-15T15:32:25;8.50;99.90
6110;DHT22;3085;49.444;11.054;2023-04-15T15:34:51;8.50;99.90
6110;DHT22;3085;49.444;11.054;2023-04-15T15:37:18;8.60;99.90
6110;DHT22;3085;49.444;11.054;2023-04-15T15:39:45;8.60;99.90
6110;DHT22;3085;49.444;11.054;2023-04-15T15:42:12;8.60;99.90
6110;DHT22;3085;49.444;11.054;2023-04-15T15:44:39;8.50;99.90
6110;DHT22;3085;49.444;11.054;2023-04-15T15:47:07;8.50;99.90
6110;DHT22;3085;49.444;11.054;2023-04-15T15:49:34;8.40;99.90
6110;DHT22;3085;49.444;11.054;2023-04-15T15:52:01;8.30;99.90
6110;DHT22;3085;49.444;11.054;2023-04-15T15:54:28;8.20;99.90
6110;DHT22;3085;49.444;11.054;2023-04-15T15:56:56;8.20;99.90
6110;DHT22;3085;49.444;11.054;2023-04-15T15:59:23;8.10;99.90
6110;DHT22;3085;49.444;11.054;2023-04-15T16:01:51;8.10;99.90
6110;DHT22;3085;49.444;11.054;2023-04-15T16:04:19;8.00;99.90
6110;DHT22;3085;49.444;11.054;2023-04-15T16:06:46;7.90;99.90
6110;DHT22;3085;49.444;11.054;2023-04-15T16:09:14;7.90;99.90
6110;DHT22;3085;49.444;11.054;2023-04-15T16:11:41;7.90;99.90